sensor_id;sensor_type;location;lat;lon;timestamp;P1;durP1;ratioP1;P2;durP2;ratioP2
8038;SDS011;4062;49.844;8.120;2022-11-30T00:00:24;1.77;;;1.67;;
8038;SDS011;4062;49.844;8.120;2022-11-30T00:02:25;1.70;;;1.60;;
8038;SDS011;4062;49.844;8.120;2022-11-30T00:04:28;1.40;;;1.37;;
8038;SDS011;4062;49.844;8.120;2022-11-30T00:06:29;2.00;;;1.90;;
8038;SDS011;4062;49.844;8.120;2022-11-30T00:08:30;1.30;;;1.30;;
8038;SDS011;4062;49.844;8.120;2022-11-30T00:10:30;1.30;;;1.30;;
8038;SDS011;4062;49.844;8.120;2022-11-30T00:12:31;1.77;;;1.67;;
8038;SDS011;4062;49.844;8.120;2022-11-30T00:14:32;3.30;;;2.10;;
8038;SDS011;4062;49.844;8.120;2022-11-30T00:16:33;1.30;;;1.30;;
8038;SDS011;4062;49.844;8.120;2022-11-30T00:18:34;1.77;;;1.70;;
8038;SDS011;4062;49.844;8.120;2022-11-30T00:20:36;2.00;;;1.80;;
8038;SDS011;4062;49.844;8.120;2022-11-30T00:22:38;1.93;;;1.83;;
8038;SDS011;4062;49.844;8.120;2022-11-30T00:24:39;1.57;;;1.57;;
8038;SDS011;4062;49.844;8.120;2022-11-30T00:26:40;1.73;;;1.63;;
8038;SDS011;4062;49.844;8.120;2022-11-30T00:28:41;2.00;;;1.50;;
8038;SDS011;4062;49.844;8.120;2022-11-30T00:30:42;1.20;;;1.20;;
8038;SDS011;4062;49.844;8.120;2022-11-30T00:32:43;1.40;;;1.40;;
8038;SDS011;4062;49.844;8.120;2022-11-30T00:34:44;2.40;;;2.30;;
8038;SDS011;4062;49.844;8.120;2022-11-30T00:36:44;1.50;;;1.50;;
8038;SDS011;4062;49.844;8.120;2022-11-30T00:38:45;1.53;;;1.47;;
8038;SDS011;4062;49.844;8.120;2022-11-30T00:40:47;1.57;;;1.47;;
8038;SDS011;4062;49.844;8.120;2022-11-30T00:42:47;1.93;;;1.83;;
8038;SDS011;4062;49.844;8.120;2022-11-30T00:44:48;1.60;;;1.50;;
8038;SDS011;4062;49.844;8.120;2022-11-30T00:46:49;1.53;;;1.50;;
8038;SDS011;4062;49.844;8.120;2022-11-30T00:48:49;1.93;;;1.83;;
8038;SDS011;4062;49.844;8.120;2022-11-30T00:50:50;1.47;;;1.37;;
8038;SDS011;4062;49.844;8.120;2022-11-30T00:52:51;1.53;;;1.43;;
8038;SDS011;4062;49.844;8.120;2022-11-30T00:54:52;1.90;;;1.80;;
8038;SDS011;4062;49.844;8.120;2022-11-30T00:56:52;1.40;;;1.30;;
8038;SDS011;4062;49.844;8.120;2022-11-30T00:58:53;1.70;;;1.60;;
8038;SDS011;4062;49.844;8.120;2022-11-30T01:00:54;1.77;;;1.70;;
8038;SDS011;4062;49.844;8.120;2022-11-30T01:02:55;1.73;;;1.63;;
8038;SDS011;4062;49.844;8.120;2022-11-30T01:04:58;1.50;;;1.40;;
8038;SDS011;4062;49.844;8.120;2022-11-30T01:06:59;1.60;;;1.30;;
8038;SDS011;4062;49.844;8.120;2022-11-30T01:09:00;1.23;;;1.23;;
8038;SDS011;4062;49.844;8.120;2022-11-30T01:11:09;1.67;;;1.63;;
8038;SDS011;4062;49.844;8.120;2022-11-30T01:13:15;1.60;;;1.60;;
8038;SDS011;4062;49.844;8.120;2022-11-30T01:15:15;1.33;;;1.30;;
8038;SDS011;4062;49.844;8.120;2022-11-30T01:17:16;1.93;;;1.83;;
8038;SDS011;4062;49.844;8.120;2022-11-30T01:19:17;1.20;;;1.10;;
8038;SDS011;4062;49.844;8.120;2022-11-30T01:21:19;1.67;;;1.57;;
8038;SDS011;4062;49.844;8.120;2022-11-30T01:23:23;1.27;;;1.27;;
8038;SDS011;4062;49.844;8.120;2022-11-30T01:25:24;1.27;;;1.27;;
8038;SDS011;4062;49.844;8.120;2022-11-30T01:27:25;1.03;;;1.03;;
8038;SDS011;4062;49.844;8.120;2022-11-30T01:29:25;1.30;;;1.30;;
8038;SDS011;4062;49.844;8.120;2022-11-30T01:31:26;1.40;;;1.40;;
8038;SDS011;4062;49.844;8.120;2022-11-30T01:33:27;2.03;;;1.93;;
8038;SDS011;4062;49.844;8.120;2022-11-30T01:35:28;1.20;;;1.20;;
8038;SDS011;4062;49.844;8.120;2022-11-30T01:37:29;1.63;;;1.53;;
8038;SDS011;4062;49.844;8.120;2022-11-30T01:39:30;1.33;;;1.33;;
8038;SDS011;4062;49.844;8.120;2022-11-30T01:41:31;1.40;;;1.30;;
8038;SDS011;4062;49.844;8.120;2022-11-30T01:43:42;1.20;;;1.10;;
8038;SDS011;4062;49.844;8.120;2022-11-30T01:45:48;1.70;;;1.60;;
8038;SDS011;4062;49.844;8.120;2022-11-30T01:47:53;2.10;;;2.00;;
8038;SDS011;4062;49.844;8.120;2022-11-30T01:49:57;2.30;;;1.90;;
8038;SDS011;4062;49.844;8.120;2022-11-30T01:52:12;1.90;;;1.80;;
8038;SDS011;4062;49.844;8.120;2022-11-30T01:54:20;1.53;;;1.53;;
8038;SDS011;4062;49.844;8.120;2022-11-30T01:56:28;1.40;;;1.30;;
8038;SDS011;4062;49.844;8.120;2022-11-30T01:58:29;1.37;;;1.37;;
8038;SDS011;4062;49.844;8.120;2022-11-30T02:00:31;2.00;;;1.50;;
8038;SDS011;4062;49.844;8.120;2022-11-30T02:02:41;1.60;;;1.50;;
8038;SDS011;4062;49.844;8.120;2022-11-30T02:05:07;1.50;;;1.50;;
8038;SDS011;4062;49.844;8.120;2022-11-30T02:07:10;1.40;;;1.30;;
8038;SDS011;4062;49.844;8.120;2022-11-30T02:09:11;1.73;;;1.67;;
8038;SDS011;4062;49.844;8.120;2022-11-30T02:11:13;1.60;;;1.50;;
8038;SDS011;4062;49.844;8.120;2022-11-30T02:13:22;1.10;;;1.00;;
8038;SDS011;4062;49.844;8.120;2022-11-30T02:18:53;2.03;;;1.93;;
8038;SDS011;4062;49.844;8.120;2022-11-30T02:26:53;1.37;;;1.37;;
8038;SDS011;4062;49.844;8.120;2022-11-30T02:29:05;1.37;;;1.27;;
8038;SDS011;4062;49.844;8.120;2022-11-30T02:31:36;1.67;;;1.67;;
8038;SDS011;4062;49.844;8.120;2022-11-30T02:34:11;2.00;;;1.90;;
8038;SDS011;4062;49.844;8.120;2022-11-30T02:36:14;1.83;;;1.73;;
8038;SDS011;4062;49.844;8.120;2022-11-30T02:38:17;1.60;;;1.50;;
8038;SDS011;4062;49.844;8.120;2022-11-30T02:40:20;1.50;;;1.40;;
8038;SDS011;4062;49.844;8.120;2022-11-30T02:42:21;1.60;;;1.50;;
8038;SDS011;4062;49.844;8.120;2022-11-30T02:44:22;1.67;;;1.60;;
8038;SDS011;4062;49.844;8.120;2022-11-30T02:46:30;1.50;;;1.50;;
8038;SDS011;4062;49.844;8.120;2022-11-30T02:51:04;1.10;;;1.10;;
8038;SDS011;4062;49.844;8.120;2022-11-30T02:53:09;1.50;;;1.37;;
8038;SDS011;4062;49.844;8.120;2022-11-30T02:55:10;1.50;;;1.40;;
8038;SDS011;4062;49.844;8.120;2022-11-30T02:57:16;1.70;;;1.60;;
8038;SDS011;4062;49.844;8.120;2022-11-30T02:59:17;1.47;;;1.37;;
8038;SDS011;4062;49.844;8.120;2022-11-30T03:01:19;2.00;;;1.90;;
8038;SDS011;4062;49.844;8.120;2022-11-30T03:03:21;1.93;;;1.57;;
8038;SDS011;4062;49.844;8.120;2022-11-30T03:05:21;2.17;;;2.07;;
8038;SDS011;4062;49.844;8.120;2022-11-30T03:07:22;1.10;;;1.10;;
8038;SDS011;4062;49.844;8.120;2022-11-30T03:09:23;2.17;;;2.07;;
8038;SDS011;4062;49.844;8.120;2022-11-30T03:11:24;1.67;;;1.57;;
8038;SDS011;4062;49.844;8.120;2022-11-30T03:13:25;1.43;;;1.40;;
8038;SDS011;4062;49.844;8.120;2022-11-30T03:15:26;1.13;;;1.03;;
8038;SDS011;4062;49.844;8.120;2022-11-30T03:17:26;1.50;;;1.40;;
8038;SDS011;4062;49.844;8.120;2022-11-30T03:19:27;1.37;;;1.37;;
8038;SDS011;4062;49.844;8.120;2022-11-30T03:21:28;1.43;;;1.43;;
8038;SDS011;4062;49.844;8.120;2022-11-30T03:23:29;1.13;;;1.13;;
8038;SDS011;4062;49.844;8.120;2022-11-30T03:25:29;1.63;;;1.53;;
8038;SDS011;4062;49.844;8.120;2022-11-30T03:27:31;1.47;;;1.47;;
8038;SDS011;4062;49.844;8.120;2022-11-30T03:29:31;2.20;;;2.10;;
8038;SDS011;4062;49.844;8.120;2022-11-30T03:31:32;1.50;;;1.40;;
8038;SDS011;4062;49.844;8.120;2022-11-30T03:33:33;1.47;;;1.47;;
8038;SDS011;4062;49.844;8.120;2022-11-30T03:35:33;1.53;;;1.43;;
8038;SDS011;4062;49.844;8.120;2022-11-30T03:37:34;1.20;;;1.20;;
8038;SDS011;4062;49.844;8.120;2022-11-30T03:39:35;1.67;;;1.57;;
8038;SDS011;4062;49.844;8.120;2022-11-30T03:41:36;1.13;;;1.10;;
8038;SDS011;4062;49.844;8.120;2022-11-30T03:43:37;1.60;;;1.50;;
8038;SDS011;4062;49.844;8.120;2022-11-30T03:45:37;1.30;;;1.30;;
8038;SDS011;4062;49.844;8.120;2022-11-30T03:47:38;1.50;;;1.40;;
8038;SDS011;4062;49.844;8.120;2022-11-30T03:49:39;0.80;;;0.80;;
8038;SDS011;4062;49.844;8.120;2022-11-30T03:51:39;1.73;;;1.63;;
8038;SDS011;4062;49.844;8.120;2022-11-30T03:53:40;1.30;;;1.30;;
8038;SDS011;4062;49.844;8.120;2022-11-30T03:55:41;2.10;;;1.37;;
8038;SDS011;4062;49.844;8.120;2022-11-30T03:57:42;1.33;;;1.33;;
8038;SDS011;4062;49.844;8.120;2022-11-30T03:59:42;1.80;;;1.70;;
8038;SDS011;4062;49.844;8.120;2022-11-30T04:01:43;1.03;;;1.03;;
8038;SDS011;4062;49.844;8.120;2022-11-30T04:03:44;1.13;;;1.13;;
8038;SDS011;4062;49.844;8.120;2022-11-30T04:05:45;1.30;;;1.30;;
8038;SDS011;4062;49.844;8.120;2022-11-30T04:07:47;1.07;;;1.07;;
8038;SDS011;4062;49.844;8.120;2022-11-30T04:09:48;1.07;;;1.07;;
8038;SDS011;4062;49.844;8.120;2022-11-30T04:11:49;1.30;;;1.20;;
8038;SDS011;4062;49.844;8.120;2022-11-30T04:13:49;1.30;;;1.30;;
8038;SDS011;4062;49.844;8.120;2022-11-30T04:15:50;1.57;;;1.47;;
8038;SDS011;4062;49.844;8.120;2022-11-30T04:17:52;1.77;;;1.67;;
8038;SDS011;4062;49.844;8.120;2022-11-30T04:19:53;1.87;;;1.60;;
8038;SDS011;4062;49.844;8.120;2022-11-30T04:21:54;1.27;;;1.20;;
8038;SDS011;4062;49.844;8.120;2022-11-30T04:23:55;1.10;;;1.10;;
8038;SDS011;4062;49.844;8.120;2022-11-30T04:25:55;1.93;;;1.83;;
8038;SDS011;4062;49.844;8.120;2022-11-30T04:27:56;1.30;;;1.30;;
8038;SDS011;4062;49.844;8.120;2022-11-30T04:29:57;1.10;;;1.10;;
8038;SDS011;4062;49.844;8.120;2022-11-30T04:31:58;1.30;;;1.30;;
8038;SDS011;4062;49.844;8.120;2022-11-30T04:33:59;1.20;;;1.17;;
8038;SDS011;4062;49.844;8.120;2022-11-30T04:36:00;1.53;;;1.43;;
8038;SDS011;4062;49.844;8.120;2022-11-30T04:38:03;1.47;;;1.47;;
8038;SDS011;4062;49.844;8.120;2022-11-30T04:40:04;1.13;;;1.13;;
8038;SDS011;4062;49.844;8.120;2022-11-30T04:42:06;1.03;;;1.03;;
8038;SDS011;4062;49.844;8.120;2022-11-30T04:44:07;1.40;;;1.30;;
8038;SDS011;4062;49.844;8.120;2022-11-30T04:46:07;2.00;;;1.90;;
8038;SDS011;4062;49.844;8.120;2022-11-30T04:48:08;1.33;;;1.33;;
8038;SDS011;4062;49.844;8.120;2022-11-30T04:50:10;1.73;;;1.63;;
8038;SDS011;4062;49.844;8.120;2022-11-30T04:52:10;1.30;;;1.30;;
8038;SDS011;4062;49.844;8.120;2022-11-30T04:54:11;1.17;;;1.17;;
8038;SDS011;4062;49.844;8.120;2022-11-30T04:56:12;1.57;;;1.47;;
8038;SDS011;4062;49.844;8.120;2022-11-30T04:58:12;4.50;;;1.30;;
8038;SDS011;4062;49.844;8.120;2022-11-30T05:00:14;1.50;;;1.40;;
8038;SDS011;4062;49.844;8.120;2022-11-30T05:02:17;0.90;;;0.90;;
8038;SDS011;4062;49.844;8.120;2022-11-30T05:04:18;1.37;;;1.30;;
8038;SDS011;4062;49.844;8.120;2022-11-30T05:06:18;1.70;;;1.60;;
8038;SDS011;4062;49.844;8.120;2022-11-30T05:08:19;1.50;;;1.40;;
8038;SDS011;4062;49.844;8.120;2022-11-30T05:10:20;1.07;;;1.07;;
8038;SDS011;4062;49.844;8.120;2022-11-30T05:12:21;1.30;;;1.30;;
8038;SDS011;4062;49.844;8.120;2022-11-30T05:14:21;1.37;;;1.27;;
8038;SDS011;4062;49.844;8.120;2022-11-30T05:16:22;1.20;;;1.20;;
8038;SDS011;4062;49.844;8.120;2022-11-30T05:18:23;1.60;;;1.50;;
8038;SDS011;4062;49.844;8.120;2022-11-30T05:20:23;1.10;;;1.10;;
8038;SDS011;4062;49.844;8.120;2022-11-30T05:22:24;1.30;;;1.20;;
8038;SDS011;4062;49.844;8.120;2022-11-30T05:24:25;1.90;;;1.70;;
8038;SDS011;4062;49.844;8.120;2022-11-30T05:26:25;1.23;;;1.23;;
8038;SDS011;4062;49.844;8.120;2022-11-30T05:28:26;1.53;;;1.53;;
8038;SDS011;4062;49.844;8.120;2022-11-30T05:30:27;1.27;;;1.27;;
8038;SDS011;4062;49.844;8.120;2022-11-30T05:32:27;1.20;;;1.20;;
8038;SDS011;4062;49.844;8.120;2022-11-30T05:34:28;1.70;;;1.60;;
8038;SDS011;4062;49.844;8.120;2022-11-30T05:36:29;1.13;;;1.13;;
8038;SDS011;4062;49.844;8.120;2022-11-30T05:38:29;1.30;;;1.30;;
8038;SDS011;4062;49.844;8.120;2022-11-30T05:40:30;1.03;;;1.03;;
8038;SDS011;4062;49.844;8.120;2022-11-30T05:42:32;1.43;;;1.43;;
8038;SDS011;4062;49.844;8.120;2022-11-30T05:44:33;1.37;;;1.33;;
8038;SDS011;4062;49.844;8.120;2022-11-30T05:46:33;1.30;;;1.27;;
8038;SDS011;4062;49.844;8.120;2022-11-30T05:48:35;1.27;;;1.27;;
8038;SDS011;4062;49.844;8.120;2022-11-30T05:50:36;1.40;;;1.10;;
8038;SDS011;4062;49.844;8.120;2022-11-30T05:52:37;1.10;;;1.10;;
8038;SDS011;4062;49.844;8.120;2022-11-30T05:54:38;1.27;;;1.27;;
8038;SDS011;4062;49.844;8.120;2022-11-30T05:56:39;1.37;;;1.27;;
8038;SDS011;4062;49.844;8.120;2022-11-30T05:58:39;1.10;;;1.10;;
8038;SDS011;4062;49.844;8.120;2022-11-30T06:00:40;1.47;;;1.37;;
8038;SDS011;4062;49.844;8.120;2022-11-30T06:02:41;1.00;;;1.00;;
8038;SDS011;4062;49.844;8.120;2022-11-30T06:04:42;1.33;;;1.23;;
8038;SDS011;4062;49.844;8.120;2022-11-30T06:06:42;1.40;;;1.40;;
8038;SDS011;4062;49.844;8.120;2022-11-30T06:08:44;1.70;;;1.60;;
8038;SDS011;4062;49.844;8.120;2022-11-30T06:10:46;1.33;;;1.23;;
8038;SDS011;4062;49.844;8.120;2022-11-30T06:12:47;1.67;;;1.57;;
8038;SDS011;4062;49.844;8.120;2022-11-30T06:14:48;1.40;;;1.40;;
8038;SDS011;4062;49.844;8.120;2022-11-30T06:16:50;1.77;;;1.67;;
8038;SDS011;4062;49.844;8.120;2022-11-30T06:18:50;1.20;;;1.10;;
8038;SDS011;4062;49.844;8.120;2022-11-30T06:20:52;1.20;;;1.20;;
8038;SDS011;4062;49.844;8.120;2022-11-30T06:22:53;1.27;;;1.27;;
8038;SDS011;4062;49.844;8.120;2022-11-30T06:24:53;1.27;;;1.17;;
8038;SDS011;4062;49.844;8.120;2022-11-30T06:26:54;1.23;;;1.23;;
8038;SDS011;4062;49.844;8.120;2022-11-30T06:28:55;1.33;;;1.30;;
8038;SDS011;4062;49.844;8.120;2022-11-30T06:30:59;1.30;;;1.20;;
8038;SDS011;4062;49.844;8.120;2022-11-30T06:33:01;1.10;;;1.10;;
8038;SDS011;4062;49.844;8.120;2022-11-30T06:35:02;1.13;;;1.13;;
8038;SDS011;4062;49.844;8.120;2022-11-30T06:37:03;1.00;;;1.00;;
8038;SDS011;4062;49.844;8.120;2022-11-30T06:39:04;1.23;;;1.23;;
8038;SDS011;4062;49.844;8.120;2022-11-30T06:41:05;1.43;;;1.43;;
8038;SDS011;4062;49.844;8.120;2022-11-30T06:43:08;1.50;;;1.40;;
8038;SDS011;4062;49.844;8.120;2022-11-30T06:45:09;1.37;;;1.27;;
8038;SDS011;4062;49.844;8.120;2022-11-30T06:47:11;1.20;;;1.10;;
8038;SDS011;4062;49.844;8.120;2022-11-30T06:49:11;1.30;;;1.20;;
8038;SDS011;4062;49.844;8.120;2022-11-30T06:51:12;1.27;;;1.27;;
8038;SDS011;4062;49.844;8.120;2022-11-30T06:53:13;1.30;;;1.30;;
8038;SDS011;4062;49.844;8.120;2022-11-30T06:55:13;1.60;;;1.57;;
8038;SDS011;4062;49.844;8.120;2022-11-30T06:57:14;0.87;;;0.80;;
8038;SDS011;4062;49.844;8.120;2022-11-30T06:59:15;1.30;;;1.20;;
8038;SDS011;4062;49.844;8.120;2022-11-30T07:01:16;1.20;;;1.20;;
8038;SDS011;4062;49.844;8.120;2022-11-30T07:03:20;1.50;;;1.40;;
8038;SDS011;4062;49.844;8.120;2022-11-30T07:05:21;1.13;;;1.13;;
8038;SDS011;4062;49.844;8.120;2022-11-30T07:07:21;1.97;;;1.77;;
8038;SDS011;4062;49.844;8.120;2022-11-30T07:09:22;1.93;;;1.83;;
8038;SDS011;4062;49.844;8.120;2022-11-30T07:11:23;1.73;;;1.63;;
8038;SDS011;4062;49.844;8.120;2022-11-30T07:13:24;1.67;;;1.57;;
8038;SDS011;4062;49.844;8.120;2022-11-30T07:15:24;1.13;;;1.10;;
8038;SDS011;4062;49.844;8.120;2022-11-30T07:17:25;1.90;;;1.80;;
8038;SDS011;4062;49.844;8.120;2022-11-30T07:19:26;1.70;;;1.60;;
8038;SDS011;4062;49.844;8.120;2022-11-30T07:21:26;1.90;;;1.37;;
8038;SDS011;4062;49.844;8.120;2022-11-30T07:23:27;1.73;;;1.63;;
8038;SDS011;4062;49.844;8.120;2022-11-30T07:25:50;1.40;;;1.40;;
8038;SDS011;4062;49.844;8.120;2022-11-30T07:28:08;2.30;;;1.60;;
8038;SDS011;4062;49.844;8.120;2022-11-30T07:30:09;1.63;;;1.53;;
8038;SDS011;4062;49.844;8.120;2022-11-30T07:32:11;1.70;;;1.60;;
8038;SDS011;4062;49.844;8.120;2022-11-30T07:34:13;2.30;;;2.10;;
8038;SDS011;4062;49.844;8.120;2022-11-30T07:36:14;1.77;;;1.67;;
8038;SDS011;4062;49.844;8.120;2022-11-30T07:38:17;1.60;;;1.60;;
8038;SDS011;4062;49.844;8.120;2022-11-30T07:40:17;3.00;;;2.13;;
8038;SDS011;4062;49.844;8.120;2022-11-30T07:42:18;1.60;;;1.50;;
8038;SDS011;4062;49.844;8.120;2022-11-30T07:44:19;1.97;;;1.53;;
8038;SDS011;4062;49.844;8.120;2022-11-30T07:46:19;1.30;;;1.03;;
8038;SDS011;4062;49.844;8.120;2022-11-30T07:48:20;1.43;;;1.33;;
8038;SDS011;4062;49.844;8.120;2022-11-30T07:50:22;2.10;;;1.80;;
8038;SDS011;4062;49.844;8.120;2022-11-30T07:52:30;8.60;;;1.90;;
8038;SDS011;4062;49.844;8.120;2022-11-30T07:54:31;2.13;;;1.87;;
8038;SDS011;4062;49.844;8.120;2022-11-30T07:56:32;3.83;;;2.03;;
8038;SDS011;4062;49.844;8.120;2022-11-30T07:58:33;1.67;;;1.57;;
8038;SDS011;4062;49.844;8.120;2022-11-30T08:00:34;2.43;;;2.23;;
8038;SDS011;4062;49.844;8.120;2022-11-30T08:02:36;2.63;;;1.97;;
8038;SDS011;4062;49.844;8.120;2022-11-30T08:04:37;2.57;;;2.37;;
8038;SDS011;4062;49.844;8.120;2022-11-30T08:06:38;2.37;;;2.27;;
8038;SDS011;4062;49.844;8.120;2022-11-30T08:08:40;2.20;;;2.00;;
8038;SDS011;4062;49.844;8.120;2022-11-30T08:10:43;1.83;;;1.73;;
8038;SDS011;4062;49.844;8.120;2022-11-30T08:12:43;2.40;;;2.20;;
8038;SDS011;4062;49.844;8.120;2022-11-30T08:14:44;2.20;;;2.10;;
8038;SDS011;4062;49.844;8.120;2022-11-30T08:16:45;2.50;;;1.50;;
8038;SDS011;4062;49.844;8.120;2022-11-30T08:18:46;2.30;;;2.10;;
8038;SDS011;4062;49.844;8.120;2022-11-30T08:20:47;2.17;;;2.00;;
8038;SDS011;4062;49.844;8.120;2022-11-30T08:22:59;3.00;;;2.07;;
8038;SDS011;4062;49.844;8.120;2022-11-30T08:25:00;2.00;;;1.87;;
8038;SDS011;4062;49.844;8.120;2022-11-30T08:27:01;2.77;;;2.53;;
8038;SDS011;4062;49.844;8.120;2022-11-30T08:29:01;2.20;;;2.03;;
8038;SDS011;4062;49.844;8.120;2022-11-30T08:31:03;1.67;;;1.57;;
8038;SDS011;4062;49.844;8.120;2022-11-30T08:33:07;3.27;;;2.57;;
8038;SDS011;4062;49.844;8.120;2022-11-30T08:35:08;3.67;;;2.23;;
8038;SDS011;4062;49.844;8.120;2022-11-30T08:37:09;1.73;;;1.63;;
8038;SDS011;4062;49.844;8.120;2022-11-30T08:39:10;2.60;;;2.20;;
8038;SDS011;4062;49.844;8.120;2022-11-30T08:41:13;5.07;;;2.53;;
8038;SDS011;4062;49.844;8.120;2022-11-30T08:43:18;2.17;;;2.07;;
8038;SDS011;4062;49.844;8.120;2022-11-30T08:45:19;2.07;;;1.97;;
8038;SDS011;4062;49.844;8.120;2022-11-30T08:47:19;2.50;;;2.40;;
8038;SDS011;4062;49.844;8.120;2022-11-30T08:49:20;2.73;;;2.53;;
8038;SDS011;4062;49.844;8.120;2022-11-30T08:51:22;2.60;;;2.50;;
8038;SDS011;4062;49.844;8.120;2022-11-30T08:53:22;1.60;;;1.50;;
8038;SDS011;4062;49.844;8.120;2022-11-30T08:55:23;3.10;;;2.57;;
8038;SDS011;4062;49.844;8.120;2022-11-30T08:57:24;2.43;;;2.23;;
8038;SDS011;4062;49.844;8.120;2022-11-30T08:59:25;2.03;;;1.93;;
8038;SDS011;4062;49.844;8.120;2022-11-30T09:01:26;2.20;;;2.10;;
8038;SDS011;4062;49.844;8.120;2022-11-30T09:03:27;2.97;;;2.87;;
8038;SDS011;4062;49.844;8.120;2022-11-30T09:05:27;2.70;;;2.50;;
8038;SDS011;4062;49.844;8.120;2022-11-30T09:07:28;2.37;;;2.27;;
8038;SDS011;4062;49.844;8.120;2022-11-30T09:09:29;1.97;;;1.80;;
8038;SDS011;4062;49.844;8.120;2022-11-30T09:11:31;4.60;;;2.60;;
8038;SDS011;4062;49.844;8.120;2022-11-30T09:13:33;1.97;;;1.77;;
8038;SDS011;4062;49.844;8.120;2022-11-30T09:15:33;2.00;;;1.80;;
8038;SDS011;4062;49.844;8.120;2022-11-30T09:17:34;3.03;;;2.43;;
8038;SDS011;4062;49.844;8.120;2022-11-30T09:19:35;2.70;;;2.60;;
8038;SDS011;4062;49.844;8.120;2022-11-30T09:21:36;2.10;;;2.00;;
8038;SDS011;4062;49.844;8.120;2022-11-30T09:23:37;2.30;;;2.20;;
8038;SDS011;4062;49.844;8.120;2022-11-30T09:25:38;2.93;;;2.70;;
8038;SDS011;4062;49.844;8.120;2022-11-30T09:27:39;2.50;;;2.40;;
8038;SDS011;4062;49.844;8.120;2022-11-30T09:29:40;3.50;;;2.77;;
8038;SDS011;4062;49.844;8.120;2022-11-30T09:31:41;2.40;;;1.80;;
8038;SDS011;4062;49.844;8.120;2022-11-30T09:33:42;1.73;;;1.63;;
8038;SDS011;4062;49.844;8.120;2022-11-30T09:35:44;1.90;;;1.80;;
8038;SDS011;4062;49.844;8.120;2022-11-30T09:37:54;10.07;;;3.30;;
8038;SDS011;4062;49.844;8.120;2022-11-30T09:39:55;7.53;;;2.47;;
8038;SDS011;4062;49.844;8.120;2022-11-30T09:49:44;6.37;;;4.00;;
8038;SDS011;4062;49.844;8.120;2022-11-30T09:51:47;13.60;;;2.87;;
8038;SDS011;4062;49.844;8.120;2022-11-30T09:53:59;16.63;;;3.33;;
8038;SDS011;4062;49.844;8.120;2022-11-30T09:56:17;14.63;;;2.67;;
8038;SDS011;4062;49.844;8.120;2022-11-30T09:59:29;5.63;;;3.47;;
8038;SDS011;4062;49.844;8.120;2022-11-30T10:01:17;6.87;;;2.80;;
8038;SDS011;4062;49.844;8.120;2022-11-30T10:03:20;3.37;;;2.50;;
8038;SDS011;4062;49.844;8.120;2022-11-30T10:05:27;5.73;;;2.47;;
8038;SDS011;4062;49.844;8.120;2022-11-30T10:10:29;3.37;;;2.73;;
8038;SDS011;4062;49.844;8.120;2022-11-30T10:12:47;3.90;;;2.60;;
8038;SDS011;4062;49.844;8.120;2022-11-30T10:14:59;4.03;;;2.50;;
8038;SDS011;4062;49.844;8.120;2022-11-30T10:17:20;9.33;;;3.83;;
8038;SDS011;4062;49.844;8.120;2022-11-30T10:22:36;6.30;;;2.97;;
8038;SDS011;4062;49.844;8.120;2022-11-30T10:25:21;3.10;;;2.90;;
8038;SDS011;4062;49.844;8.120;2022-11-30T10:27:53;3.33;;;2.60;;
8038;SDS011;4062;49.844;8.120;2022-11-30T10:30:20;10.73;;;2.70;;
8038;SDS011;4062;49.844;8.120;2022-11-30T10:32:34;5.77;;;3.00;;
8038;SDS011;4062;49.844;8.120;2022-11-30T10:34:37;10.63;;;2.57;;
8038;SDS011;4062;49.844;8.120;2022-11-30T10:36:42;6.07;;;3.63;;
8038;SDS011;4062;49.844;8.120;2022-11-30T10:38:47;3.17;;;2.97;;
8038;SDS011;4062;49.844;8.120;2022-11-30T10:41:55;3.83;;;2.43;;
8038;SDS011;4062;49.844;8.120;2022-11-30T10:43:57;9.47;;;3.33;;
8038;SDS011;4062;49.844;8.120;2022-11-30T10:46:27;2.80;;;2.60;;
8038;SDS011;4062;49.844;8.120;2022-11-30T10:48:36;2.40;;;2.30;;
8038;SDS011;4062;49.844;8.120;2022-11-30T10:50:41;4.07;;;2.60;;
8038;SDS011;4062;49.844;8.120;2022-11-30T10:52:46;2.57;;;2.47;;
8038;SDS011;4062;49.844;8.120;2022-11-30T10:54:51;2.70;;;2.50;;
8038;SDS011;4062;49.844;8.120;2022-11-30T10:56:55;6.50;;;2.30;;
8038;SDS011;4062;49.844;8.120;2022-11-30T10:59:02;3.43;;;2.67;;
8038;SDS011;4062;49.844;8.120;2022-11-30T11:01:27;6.63;;;2.87;;
8038;SDS011;4062;49.844;8.120;2022-11-30T11:03:35;7.00;;;2.60;;
8038;SDS011;4062;49.844;8.120;2022-11-30T11:05:36;3.10;;;2.90;;
8038;SDS011;4062;49.844;8.120;2022-11-30T11:07:44;4.50;;;2.50;;
8038;SDS011;4062;49.844;8.120;2022-11-30T11:10:28;3.13;;;2.73;;
8038;SDS011;4062;49.844;8.120;2022-11-30T11:12:39;4.00;;;2.50;;
8038;SDS011;4062;49.844;8.120;2022-11-30T11:15:07;4.90;;;2.87;;
8038;SDS011;4062;49.844;8.120;2022-11-30T11:19:23;4.53;;;2.27;;
8038;SDS011;4062;49.844;8.120;2022-11-30T11:21:31;2.00;;;1.90;;
8038;SDS011;4062;49.844;8.120;2022-11-30T11:23:38;3.43;;;2.87;;
8038;SDS011;4062;49.844;8.120;2022-11-30T11:25:41;2.57;;;2.10;;
8038;SDS011;4062;49.844;8.120;2022-11-30T11:27:42;2.43;;;2.07;;
8038;SDS011;4062;49.844;8.120;2022-11-30T11:29:42;3.93;;;3.63;;
8038;SDS011;4062;49.844;8.120;2022-11-30T11:31:44;2.27;;;2.00;;
8038;SDS011;4062;49.844;8.120;2022-11-30T11:33:52;2.77;;;2.53;;
8038;SDS011;4062;49.844;8.120;2022-11-30T11:35:54;2.50;;;2.30;;
8038;SDS011;4062;49.844;8.120;2022-11-30T11:40:38;4.40;;;2.90;;
8038;SDS011;4062;49.844;8.120;2022-11-30T11:42:51;2.77;;;2.50;;
8038;SDS011;4062;49.844;8.120;2022-11-30T11:44:54;3.80;;;2.60;;
8038;SDS011;4062;49.844;8.120;2022-11-30T11:47:02;2.00;;;1.90;;
8038;SDS011;4062;49.844;8.120;2022-11-30T11:49:22;2.70;;;1.93;;
8038;SDS011;4062;49.844;8.120;2022-11-30T11:51:38;4.10;;;3.07;;
8038;SDS011;4062;49.844;8.120;2022-11-30T11:55:48;6.93;;;3.10;;
8038;SDS011;4062;49.844;8.120;2022-11-30T11:57:58;5.03;;;2.43;;
8038;SDS011;4062;49.844;8.120;2022-11-30T12:00:04;4.43;;;2.77;;
8038;SDS011;4062;49.844;8.120;2022-11-30T12:04:31;3.37;;;2.60;;
8038;SDS011;4062;49.844;8.120;2022-11-30T12:06:44;4.17;;;2.83;;
8038;SDS011;4062;49.844;8.120;2022-11-30T12:08:53;2.30;;;2.10;;
8038;SDS011;4062;49.844;8.120;2022-11-30T12:11:17;2.13;;;2.03;;
8038;SDS011;4062;49.844;8.120;2022-11-30T12:13:30;2.43;;;2.33;;
8038;SDS011;4062;49.844;8.120;2022-11-30T12:15:42;2.90;;;2.27;;
8038;SDS011;4062;49.844;8.120;2022-11-30T12:18:19;9.30;;;2.60;;
8038;SDS011;4062;49.844;8.120;2022-11-30T12:20:46;2.53;;;2.27;;
8038;SDS011;4062;49.844;8.120;2022-11-30T12:23:33;3.80;;;2.17;;
8038;SDS011;4062;49.844;8.120;2022-11-30T12:26:05;2.63;;;2.30;;
8038;SDS011;4062;49.844;8.120;2022-11-30T12:28:21;2.73;;;2.53;;
8038;SDS011;4062;49.844;8.120;2022-11-30T12:33:06;4.87;;;2.90;;
8038;SDS011;4062;49.844;8.120;2022-11-30T12:38:04;3.30;;;2.07;;
8038;SDS011;4062;49.844;8.120;2022-11-30T12:40:56;3.20;;;2.10;;
8038;SDS011;4062;49.844;8.120;2022-11-30T12:50:21;3.43;;;2.10;;
8038;SDS011;4062;49.844;8.120;2022-11-30T12:58:06;3.60;;;3.30;;
8038;SDS011;4062;49.844;8.120;2022-11-30T13:00:22;2.53;;;2.33;;
8038;SDS011;4062;49.844;8.120;2022-11-30T13:05:05;2.33;;;2.23;;
8038;SDS011;4062;49.844;8.120;2022-11-30T13:07:32;4.17;;;2.30;;
8038;SDS011;4062;49.844;8.120;2022-11-30T13:09:52;6.23;;;2.87;;
8038;SDS011;4062;49.844;8.120;2022-11-30T13:12:30;2.50;;;2.27;;
8038;SDS011;4062;49.844;8.120;2022-11-30T13:14:35;3.40;;;2.93;;
8038;SDS011;4062;49.844;8.120;2022-11-30T13:16:36;2.13;;;1.80;;
8038;SDS011;4062;49.844;8.120;2022-11-30T13:18:38;2.30;;;2.10;;
8038;SDS011;4062;49.844;8.120;2022-11-30T13:20:46;2.60;;;2.40;;
8038;SDS011;4062;49.844;8.120;2022-11-30T13:23:10;3.23;;;2.27;;
8038;SDS011;4062;49.844;8.120;2022-11-30T13:25:21;3.07;;;2.50;;
8038;SDS011;4062;49.844;8.120;2022-11-30T13:28:00;2.57;;;2.40;;
8038;SDS011;4062;49.844;8.120;2022-11-30T13:30:11;5.70;;;2.33;;
8038;SDS011;4062;49.844;8.120;2022-11-30T13:32:40;3.37;;;2.60;;
8038;SDS011;4062;49.844;8.120;2022-11-30T13:34:41;3.20;;;2.90;;
8038;SDS011;4062;49.844;8.120;2022-11-30T13:36:42;3.07;;;2.80;;
8038;SDS011;4062;49.844;8.120;2022-11-30T13:38:44;2.20;;;2.10;;
8038;SDS011;4062;49.844;8.120;2022-11-30T13:41:18;3.03;;;2.30;;
8038;SDS011;4062;49.844;8.120;2022-11-30T13:43:19;2.63;;;1.67;;
8038;SDS011;4062;49.844;8.120;2022-11-30T13:45:24;2.47;;;2.37;;
8038;SDS011;4062;49.844;8.120;2022-11-30T13:47:32;2.30;;;2.20;;
8038;SDS011;4062;49.844;8.120;2022-11-30T13:49:34;5.23;;;2.97;;
8038;SDS011;4062;49.844;8.120;2022-11-30T13:51:37;1.60;;;1.50;;